createdAt,value
2023-01-17T00:00:00.724Z,5.54
2023-01-17T00:02:28.521Z,5.45
2023-01-17T00:05:13.453Z,5.35
2023-01-17T00:07:58.223Z,5.25
2023-01-17T00:10:27.344Z,5.30
2023-01-17T00:13:02.227Z,5.22
2023-01-17T00:15:30.835Z,5.17
2023-01-17T00:17:57.910Z,5.34
2023-01-17T00:20:45.448Z,5.22
2023-01-17T00:23:41.026Z,5.19
2023-01-17T00:26:14.079Z,4.98
2023-01-17T00:28:42.285Z,5.18
2023-01-17T00:31:10.414Z,5.15
2023-01-17T00:33:37.224Z,5.18
2023-01-17T00:36:04.906Z,5.08
2023-01-17T00:38:33.785Z,5.05
2023-01-17T00:41:09.374Z,5.18
2023-01-17T00:43:54.918Z,5.20
2023-01-17T00:46:39.905Z,4.97
2023-01-17T00:49:25.764Z,4.93
2023-01-17T00:52:11.115Z,5.00
2023-01-17T00:54:56.456Z,4.95
2023-01-17T00:57:41.715Z,5.13
2023-01-17T01:00:27.589Z,5.17
2023-01-17T01:03:12.268Z,5.20
2023-01-17T01:05:57.055Z,4.99
2023-01-17T01:08:45.305Z,5.03
2023-01-17T01:11:33.065Z,5.11
2023-01-17T01:14:19.527Z,5.22
2023-01-17T01:17:04.912Z,4.97
2023-01-17T01:19:50.231Z,4.99
2023-01-17T01:22:34.990Z,5.08
2023-01-17T01:25:20.366Z,5.06
2023-01-17T01:28:05.213Z,5.21
2023-01-17T01:30:50.453Z,5.22
2023-01-17T01:33:20.176Z,5.05
2023-01-17T01:35:48.181Z,5.15
2023-01-17T01:38:14.997Z,4.97
2023-01-17T01:41:01.601Z,5.01
2023-01-17T01:43:45.844Z,5.09
2023-01-17T01:46:16.706Z,5.16
2023-01-17T01:48:52.278Z,5.21
2023-01-17T01:51:27.593Z,4.94
2023-01-17T01:54:01.019Z,5.21
2023-01-17T01:56:29.522Z,5.25
2023-01-17T01:58:58.590Z,5.16
2023-01-17T02:01:25.074Z,5.20
2023-01-17T02:03:52.387Z,5.02
2023-01-17T02:06:29.998Z,4.87
2023-01-17T02:09:00.592Z,4.87
2023-01-17T02:11:27.668Z,4.99
2023-01-17T02:13:54.165Z,4.89
2023-01-17T02:16:55.931Z,4.98
2023-01-17T02:19:55.824Z,5.27
2023-01-17T02:22:43.937Z,4.95
2023-01-17T02:25:37.929Z,4.92
2023-01-17T02:28:19.392Z,4.80
2023-01-17T02:31:00.553Z,4.71
2023-01-17T02:33:50.931Z,4.79
2023-01-17T02:36:23.573Z,4.87
2023-01-17T02:38:59.267Z,4.64
2023-01-17T02:41:35.424Z,4.38
2023-01-17T02:44:03.026Z,4.53
2023-01-17T02:46:29.704Z,4.44
2023-01-17T02:48:57.798Z,4.43
2023-01-17T02:51:51.926Z,4.28
2023-01-17T02:54:52.282Z,4.41
2023-01-17T02:57:31.825Z,4.54
2023-01-17T03:00:13.944Z,4.52
2023-01-17T03:02:57.170Z,4.31
2023-01-17T03:05:36.473Z,4.29
2023-01-17T03:08:03.801Z,4.49
2023-01-17T03:10:33.918Z,4.43
2023-01-17T03:13:02.393Z,4.59
2023-01-17T03:15:29.401Z,4.61
2023-01-17T03:18:01.916Z,4.56
2023-01-17T03:20:28.258Z,4.50
2023-01-17T03:22:54.828Z,4.47
2023-01-17T03:25:21.298Z,4.29
2023-01-17T03:27:47.834Z,4.64
2023-01-17T03:30:14.350Z,4.63
2023-01-17T03:32:40.747Z,4.66
2023-01-17T03:35:07.468Z,4.91
2023-01-17T03:37:33.837Z,4.81
2023-01-17T03:40:00.196Z,4.61
2023-01-17T03:42:26.576Z,4.66
2023-01-17T03:44:52.956Z,4.71
2023-01-17T03:47:19.293Z,4.57
2023-01-17T03:49:45.681Z,4.63
2023-01-17T03:52:12.083Z,4.65
2023-01-17T03:54:38.474Z,4.68
2023-01-17T03:57:04.858Z,4.72
2023-01-17T03:59:33.921Z,4.74
2023-01-17T04:02:01.075Z,4.94
2023-01-17T04:04:27.569Z,4.47
2023-01-17T04:06:54.584Z,4.47
2023-01-17T04:09:21.016Z,4.42
2023-01-17T04:11:50.801Z,4.36
2023-01-17T04:14:17.668Z,4.52
2023-01-17T04:16:44.359Z,4.39
2023-01-17T04:19:13.567Z,4.58
2023-01-17T04:21:40.037Z,4.43
2023-01-17T04:24:06.814Z,4.52
2023-01-17T04:26:33.262Z,4.59
2023-01-17T04:28:59.699Z,4.47
2023-01-17T04:31:26.118Z,4.36
2023-01-17T04:33:52.554Z,4.31
2023-01-17T04:36:19.021Z,4.19
2023-01-17T04:38:45.475Z,4.55
2023-01-17T04:41:11.827Z,4.56
2023-01-17T04:43:38.301Z,4.70
2023-01-17T04:46:09.812Z,4.42
2023-01-17T04:48:36.774Z,4.27
2023-01-17T04:51:04.601Z,4.38
2023-01-17T04:53:31.336Z,4.37
2023-01-17T04:55:58.176Z,4.54
2023-01-17T04:58:24.636Z,4.30
2023-01-17T05:00:51.681Z,4.35
2023-01-17T05:03:19.339Z,4.30
2023-01-17T05:05:46.222Z,4.28
2023-01-17T05:08:12.713Z,4.21
2023-01-17T05:10:39.471Z,4.17
2023-01-17T05:13:05.893Z,4.13
2023-01-17T05:15:32.377Z,4.14
2023-01-17T05:17:58.844Z,4.04
2023-01-17T05:20:26.928Z,4.05
2023-01-17T05:22:55.518Z,4.08
2023-01-17T05:25:27.957Z,4.06
2023-01-17T05:27:54.698Z,4.14
2023-01-17T05:30:21.869Z,4.38
2023-01-17T05:32:53.275Z,4.80
2023-01-17T05:35:22.347Z,4.37
2023-01-17T05:37:50.417Z,4.30
2023-01-17T05:40:24.503Z,4.33
2023-01-17T05:42:53.394Z,4.19
2023-01-17T05:45:23.035Z,4.07
2023-01-17T05:47:51.057Z,4.02
2023-01-17T05:50:20.786Z,3.94
2023-01-17T05:52:52.057Z,3.98
2023-01-17T05:55:18.697Z,3.88
2023-01-17T05:57:45.172Z,3.83
2023-01-17T06:00:12.498Z,3.76
2023-01-17T06:02:39.873Z,3.67
2023-01-17T06:05:06.615Z,3.61
2023-01-17T06:07:33.661Z,3.57
2023-01-17T06:10:00.299Z,3.59
2023-01-17T06:12:26.657Z,3.57
2023-01-17T06:14:53.061Z,3.55
2023-01-17T06:17:19.555Z,3.51
2023-01-17T06:19:45.911Z,3.54
2023-01-17T06:22:12.321Z,3.48
2023-01-17T06:24:38.787Z,3.59
2023-01-17T06:27:05.250Z,3.54
2023-01-17T06:29:31.605Z,3.49
2023-01-17T06:31:59.139Z,3.60
2023-01-17T06:34:26.629Z,3.65
2023-01-17T06:36:53.334Z,3.70
2023-01-17T06:39:19.739Z,3.51
2023-01-17T06:41:46.138Z,3.56
2023-01-17T06:44:12.691Z,3.58
2023-01-17T06:46:39.193Z,3.46
2023-01-17T06:49:05.622Z,3.39
2023-01-17T06:51:32.270Z,3.29
2023-01-17T06:53:58.605Z,3.28
2023-01-17T06:56:24.954Z,3.28
2023-01-17T06:58:52.113Z,3.26
2023-01-17T07:01:18.981Z,3.31
2023-01-17T07:03:45.422Z,3.26
2023-01-17T07:06:11.981Z,3.35
2023-01-17T07:08:38.520Z,3.27
2023-01-17T07:11:07.912Z,3.35
2023-01-17T07:13:36.529Z,3.32
2023-01-17T07:16:04.489Z,3.38
2023-01-17T07:18:31.643Z,3.21
2023-01-17T07:20:58.092Z,3.22
2023-01-17T07:23:25.560Z,3.10
2023-01-17T07:25:59.637Z,3.07
2023-01-17T07:28:27.856Z,2.94
2023-01-17T07:30:54.577Z,3.05
2023-01-17T07:33:21.429Z,2.77
2023-01-17T07:35:47.935Z,2.55
2023-01-17T07:38:17.464Z,2.78
2023-01-17T07:40:44.228Z,2.67
2023-01-17T07:43:14.199Z,3.04
2023-01-17T07:45:45.581Z,2.97
2023-01-17T07:48:13.042Z,3.04
2023-01-17T07:50:39.641Z,3.09
2023-01-17T07:53:06.054Z,3.15
2023-01-17T07:55:32.892Z,3.05
2023-01-17T07:58:00.756Z,2.95
2023-01-17T08:00:28.860Z,3.06
2023-01-17T08:02:57.058Z,3.07
2023-01-17T08:05:23.854Z,3.15
2023-01-17T08:07:50.448Z,2.98
2023-01-17T08:10:18.201Z,3.15
2023-01-17T08:12:49.655Z,3.21
2023-01-17T08:15:17.599Z,3.33
2023-01-17T08:17:48.292Z,3.47
2023-01-17T08:20:15.828Z,3.63
2023-01-17T08:22:42.323Z,3.78
2023-01-17T08:25:09.357Z,3.73
2023-01-17T08:27:36.408Z,3.70
2023-01-17T08:30:03.574Z,3.69
2023-01-17T08:32:29.957Z,3.71
2023-01-17T08:34:57.164Z,3.75
2023-01-17T08:37:24.151Z,3.73
2023-01-17T08:39:50.689Z,3.75
2023-01-17T08:42:17.637Z,3.79
2023-01-17T08:44:44.165Z,3.77
2023-01-17T08:47:10.665Z,3.82
2023-01-17T08:49:37.157Z,3.84
2023-01-17T08:52:05.131Z,3.85
2023-01-17T08:54:31.645Z,3.94
2023-01-17T08:56:58.092Z,3.90
2023-01-17T08:59:24.505Z,3.98
2023-01-17T09:01:52.547Z,4.05
2023-01-17T09:04:19.323Z,3.96
2023-01-17T09:06:47.286Z,4.09
2023-01-17T09:09:15.139Z,4.16
2023-01-17T09:11:41.594Z,4.16
2023-01-17T09:14:08.110Z,4.23
2023-01-17T09:16:34.876Z,4.21
2023-01-17T09:19:01.397Z,4.29
2023-01-17T09:21:27.836Z,4.28
2023-01-17T09:23:55.596Z,4.14
2023-01-17T09:26:25.647Z,4.23
2023-01-17T09:28:52.375Z,4.28
2023-01-17T09:31:21.042Z,4.45
2023-01-17T09:33:48.440Z,4.34
2023-01-17T09:36:14.898Z,4.62
2023-01-17T09:38:41.495Z,4.61
2023-01-17T09:41:28.450Z,4.30
2023-01-17T09:44:33.576Z,4.55
2023-01-17T09:47:13.131Z,4.50
2023-01-17T09:49:45.142Z,4.59
2023-01-17T09:52:14.848Z,4.43
2023-01-17T09:54:43.441Z,4.63
2023-01-17T09:57:36.389Z,4.75
2023-01-17T10:00:33.581Z,4.85
2023-01-17T10:03:18.093Z,4.91
2023-01-17T10:06:05.781Z,5.09
2023-01-17T10:08:42.808Z,5.06
2023-01-17T10:11:30.537Z,5.16
2023-01-17T10:14:05.685Z,5.02
2023-01-17T10:16:43.902Z,5.05
2023-01-17T10:19:32.282Z,5.22
2023-01-17T10:22:07.480Z,5.02
2023-01-17T10:25:12.948Z,5.21
2023-01-17T10:27:49.579Z,5.53
2023-01-17T10:30:33.600Z,5.45
2023-01-17T10:33:04.087Z,5.30
2023-01-17T10:35:36.802Z,5.45
2023-01-17T10:38:10.473Z,5.55
2023-01-17T10:40:57.209Z,5.68
2023-01-17T10:43:45.467Z,5.65
2023-01-17T10:46:19.955Z,5.63
2023-01-17T10:48:49.470Z,5.68
2023-01-17T10:51:42.989Z,5.72
2023-01-17T10:54:46.940Z,5.56
2023-01-17T10:57:17.497Z,5.52
2023-01-17T10:59:44.155Z,5.58
2023-01-17T11:02:36.776Z,5.19
2023-01-17T11:05:23.002Z,5.35
2023-01-17T11:08:07.515Z,5.41
2023-01-17T11:10:36.611Z,5.47
2023-01-17T11:13:06.555Z,5.44
2023-01-17T11:15:39.536Z,5.33
2023-01-17T11:18:14.913Z,5.38
2023-01-17T11:20:44.966Z,5.58
2023-01-17T11:23:18.433Z,5.45
2023-01-17T11:25:52.924Z,5.52
2023-01-17T11:28:24.044Z,5.31
2023-01-17T11:30:56.167Z,5.52
2023-01-17T11:33:47.777Z,5.29
2023-01-17T11:36:28.944Z,5.12
2023-01-17T11:39:04.453Z,5.31
2023-01-17T11:41:41.677Z,5.68
2023-01-17T11:44:23.075Z,5.30
2023-01-17T11:47:09.449Z,5.42
2023-01-17T11:49:36.301Z,5.63
2023-01-17T11:52:10.355Z,5.78
2023-01-17T11:54:40.259Z,5.65
2023-01-17T11:57:17.554Z,5.50
2023-01-17T11:59:44.959Z,5.82
2023-01-17T12:02:37.254Z,5.74
2023-01-17T12:05:28.292Z,5.83
2023-01-17T12:08:26.180Z,5.57
2023-01-17T12:11:35.940Z,5.60
2023-01-17T12:14:27.248Z,5.51
2023-01-17T12:16:59.911Z,5.64
2023-01-17T12:19:49.092Z,6.01
2023-01-17T12:22:35.083Z,5.86
2023-01-17T12:25:24.182Z,5.44
2023-01-17T12:27:59.762Z,5.62
2023-01-17T12:30:55.195Z,5.54
2023-01-17T12:33:38.412Z,5.22
2023-01-17T12:36:17.452Z,5.37
2023-01-17T12:38:47.156Z,5.30
2023-01-17T12:41:16.595Z,5.45
2023-01-17T12:43:44.746Z,5.47
2023-01-17T12:46:49.839Z,5.61
2023-01-17T12:49:41.529Z,5.48
2023-01-17T12:52:15.311Z,5.35
2023-01-17T12:54:46.376Z,5.38
2023-01-17T12:57:18.295Z,5.23
2023-01-17T12:59:54.416Z,5.38
2023-01-17T13:02:35.863Z,5.27
2023-01-17T13:05:15.542Z,5.09
2023-01-17T13:07:56.263Z,5.09
2023-01-17T13:10:30.989Z,5.04
2023-01-17T13:13:04.678Z,5.09
2023-01-17T13:15:38.967Z,5.15
2023-01-17T13:18:17.171Z,5.27
2023-01-17T13:20:52.802Z,5.21
2023-01-17T13:23:29.818Z,5.25
2023-01-17T13:25:59.476Z,5.09
2023-01-17T13:28:43.531Z,5.08
2023-01-17T13:31:48.392Z,5.29
2023-01-17T13:34:48.743Z,5.07
2023-01-17T13:37:57.060Z,5.14
2023-01-17T13:40:29.701Z,5.02
2023-01-17T13:43:00.439Z,5.08
2023-01-17T13:45:30.204Z,5.01
2023-01-17T13:48:12.778Z,5.14
2023-01-17T13:50:55.502Z,5.09
2023-01-17T13:53:34.070Z,4.97
2023-01-17T13:56:18.738Z,4.94
2023-01-17T13:58:45.419Z,4.92
2023-01-17T14:01:12.069Z,4.99
2023-01-17T14:03:50.953Z,5.12
2023-01-17T14:06:35.678Z,5.00
2023-01-17T14:09:13.774Z,5.27
2023-01-17T14:12:02.718Z,5.06
2023-01-17T14:14:46.476Z,5.05
2023-01-17T14:17:15.824Z,5.15
2023-01-17T14:19:48.311Z,5.12
2023-01-17T14:22:20.860Z,5.09
2023-01-17T14:25:09.688Z,5.38
2023-01-17T14:27:41.899Z,5.05
2023-01-17T14:30:17.785Z,5.02
2023-01-17T14:33:13.512Z,5.06
2023-01-17T14:35:49.541Z,4.95
2023-01-17T14:38:25.345Z,4.88
2023-01-17T14:40:56.994Z,5.11
2023-01-17T14:43:26.048Z,5.13
2023-01-17T14:46:03.348Z,5.11
2023-01-17T14:48:30.111Z,5.23
2023-01-17T14:51:00.000Z,4.94
2023-01-17T14:53:31.362Z,4.96
2023-01-17T14:56:01.356Z,4.59
2023-01-17T14:58:36.455Z,4.57
2023-01-17T15:01:19.582Z,4.75
2023-01-17T15:03:53.984Z,4.67
2023-01-17T15:06:41.916Z,4.65
2023-01-17T15:09:20.030Z,4.82
2023-01-17T15:11:48.653Z,4.70
2023-01-17T15:14:23.373Z,4.73
2023-01-17T15:16:52.017Z,4.53
2023-01-17T15:19:20.128Z,4.54
2023-01-17T15:21:50.635Z,4.28
2023-01-17T15:24:27.503Z,4.19
2023-01-17T15:26:54.655Z,4.22
2023-01-17T15:29:26.801Z,4.16
2023-01-17T15:32:33.889Z,4.17
2023-01-17T15:35:02.718Z,4.59
2023-01-17T15:37:36.285Z,4.24
2023-01-17T15:40:18.559Z,4.03
2023-01-17T15:42:48.574Z,3.85
2023-01-17T15:45:19.923Z,4.05
2023-01-17T15:47:46.677Z,3.55
2023-01-17T15:50:27.659Z,3.74
2023-01-17T15:53:00.800Z,3.64
2023-01-17T15:55:35.966Z,3.67
2023-01-17T15:58:03.729Z,3.48
2023-01-17T16:00:32.656Z,3.20
2023-01-17T16:02:59.765Z,3.14
2023-01-17T16:05:30.981Z,3.20
2023-01-17T16:08:04.138Z,3.09
2023-01-17T16:10:37.004Z,2.94
2023-01-17T16:13:08.930Z,2.95
2023-01-17T16:15:37.216Z,3.21
2023-01-17T16:18:10.485Z,3.23
2023-01-17T16:20:41.685Z,3.30
2023-01-17T16:23:10.134Z,3.18
2023-01-17T16:25:36.533Z,2.90
2023-01-17T16:28:03.498Z,3.02
2023-01-17T16:30:30.878Z,2.93
2023-01-17T16:32:57.565Z,2.86
2023-01-17T16:35:27.613Z,2.84
2023-01-17T16:38:05.472Z,2.59
2023-01-17T16:40:33.724Z,2.38
2023-01-17T16:43:00.923Z,2.48
2023-01-17T16:45:27.535Z,2.54
2023-01-17T16:47:54.515Z,2.52
2023-01-17T16:50:23.919Z,2.44
2023-01-17T16:52:51.976Z,2.56
2023-01-17T16:55:21.971Z,2.57
2023-01-17T16:57:49.573Z,2.55
2023-01-17T17:00:16.684Z,2.48
2023-01-17T17:02:43.176Z,2.31
2023-01-17T17:05:10.981Z,2.29
2023-01-17T17:07:45.321Z,2.26
2023-01-17T17:10:17.561Z,2.24
2023-01-17T17:12:43.958Z,2.14
2023-01-17T17:15:11.862Z,2.19
2023-01-17T17:17:43.068Z,2.17
2023-01-17T17:20:12.912Z,2.27
2023-01-17T17:22:43.988Z,2.26
2023-01-17T17:25:11.965Z,2.20
2023-01-17T17:27:38.690Z,2.06
2023-01-17T17:30:06.181Z,1.96
2023-01-17T17:32:32.556Z,2.05
2023-01-17T17:34:59.201Z,1.97
2023-01-17T17:37:28.752Z,1.97
2023-01-17T17:39:56.152Z,2.13
2023-01-17T17:42:22.643Z,2.03
2023-01-17T17:44:49.036Z,2.47
2023-01-17T17:47:16.075Z,2.47
2023-01-17T17:49:43.257Z,2.45
2023-01-17T17:52:09.720Z,2.43
2023-01-17T17:54:36.450Z,2.47
2023-01-17T17:57:02.881Z,2.52
2023-01-17T17:59:29.843Z,2.40
2023-01-17T18:01:56.266Z,2.47
2023-01-17T18:04:22.935Z,2.69
2023-01-17T18:06:49.336Z,2.27
2023-01-17T18:09:16.203Z,1.97
2023-01-17T18:11:43.738Z,2.08
2023-01-17T18:14:13.928Z,2.02
2023-01-17T18:16:43.135Z,2.17
2023-01-17T18:19:18.623Z,2.10
2023-01-17T18:21:45.307Z,2.65
2023-01-17T18:24:16.685Z,2.21
2023-01-17T18:26:48.137Z,2.05
2023-01-17T18:29:16.340Z,1.93
2023-01-17T18:31:43.963Z,1.95
2023-01-17T18:34:13.673Z,1.86
2023-01-17T18:36:40.352Z,1.76
2023-01-17T18:39:15.598Z,1.80
2023-01-17T18:41:42.712Z,1.72
2023-01-17T18:44:10.427Z,1.72
2023-01-17T18:46:37.994Z,1.74
2023-01-17T18:49:04.837Z,1.80
2023-01-17T18:51:33.252Z,1.67
2023-01-17T18:54:02.855Z,1.84
2023-01-17T18:56:31.144Z,1.76
2023-01-17T18:58:57.887Z,1.75
2023-01-17T19:01:27.099Z,1.82
2023-01-17T19:03:57.538Z,1.74
2023-01-17T19:06:26.929Z,2.05
2023-01-17T19:08:53.821Z,2.03
2023-01-17T19:11:24.423Z,2.20
2023-01-17T19:13:52.388Z,2.11
2023-01-17T19:16:24.889Z,2.16
2023-01-17T19:18:52.586Z,2.18
2023-01-17T19:21:21.305Z,2.15
2023-01-17T19:23:48.782Z,2.58
2023-01-17T19:26:17.142Z,2.86
2023-01-17T19:28:45.171Z,2.82
2023-01-17T19:31:21.183Z,2.92
2023-01-17T19:33:49.618Z,3.07
2023-01-17T19:36:23.371Z,2.92
2023-01-17T19:39:03.458Z,2.78
2023-01-17T19:41:31.231Z,2.99
2023-01-17T19:44:08.547Z,2.89
2023-01-17T19:46:36.477Z,2.78
2023-01-17T19:49:04.350Z,2.76
2023-01-17T19:51:30.808Z,2.76
2023-01-17T19:54:01.101Z,2.76
2023-01-17T19:56:28.497Z,2.73
2023-01-17T19:58:57.172Z,2.73
2023-01-17T20:01:28.489Z,2.73
2023-01-17T20:03:57.576Z,2.67
2023-01-17T20:06:27.355Z,2.62
2023-01-17T20:08:53.752Z,2.74
2023-01-17T20:11:23.230Z,2.71
2023-01-17T20:13:53.867Z,2.71
2023-01-17T20:16:21.014Z,2.57
2023-01-17T20:18:47.418Z,2.64
2023-01-17T20:21:22.366Z,2.79
2023-01-17T20:23:50.500Z,2.58
2023-01-17T20:26:19.922Z,2.60
2023-01-17T20:28:48.039Z,2.83
2023-01-17T20:31:17.961Z,3.17
2023-01-17T20:33:45.514Z,3.18
2023-01-17T20:36:14.861Z,3.15
2023-01-17T20:38:45.405Z,3.56
2023-01-17T20:41:33.682Z,3.24
2023-01-17T20:44:01.656Z,3.38
2023-01-17T20:46:31.707Z,3.58
2023-01-17T20:48:58.516Z,3.61
2023-01-17T20:51:26.887Z,3.59
2023-01-17T20:53:59.676Z,3.64
2023-01-17T20:56:27.013Z,3.41
2023-01-17T20:58:54.188Z,3.32
2023-01-17T21:01:24.097Z,3.43
2023-01-17T21:03:53.913Z,3.26
2023-01-17T21:06:22.747Z,3.39
2023-01-17T21:08:49.462Z,3.65
2023-01-17T21:11:19.699Z,3.53
2023-01-17T21:13:48.552Z,3.32
2023-01-17T21:16:16.829Z,3.19
2023-01-17T21:18:46.758Z,3.18
2023-01-17T21:21:19.278Z,3.38
2023-01-17T21:23:45.785Z,3.49
2023-01-17T21:26:15.212Z,3.65
2023-01-17T21:28:44.231Z,3.42
2023-01-17T21:31:23.286Z,3.48
2023-01-17T21:34:01.010Z,3.65
2023-01-17T21:36:38.625Z,3.39
2023-01-17T21:39:07.876Z,3.44
2023-01-17T21:41:41.373Z,3.30
2023-01-17T21:44:12.769Z,3.31
2023-01-17T21:46:40.633Z,3.17
2023-01-17T21:49:10.500Z,3.30
2023-01-17T21:51:55.448Z,3.17
2023-01-17T21:54:44.066Z,3.16
2023-01-17T21:57:30.456Z,3.56
2023-01-17T21:59:56.859Z,3.23
2023-01-17T22:02:23.862Z,3.07
2023-01-17T22:04:50.297Z,3.18
2023-01-17T22:07:16.841Z,3.20
2023-01-17T22:09:43.222Z,3.22
2023-01-17T22:12:09.640Z,3.33
2023-01-17T22:14:37.973Z,3.39
2023-01-17T22:17:04.358Z,3.34
2023-01-17T22:19:30.718Z,3.14
2023-01-17T22:21:57.093Z,3.02
2023-01-17T22:24:23.509Z,2.98
2023-01-17T22:26:49.845Z,2.98
2023-01-17T22:29:18.776Z,2.48
2023-01-17T22:31:45.846Z,2.46
2023-01-17T22:34:15.485Z,2.55
2023-01-17T22:36:41.947Z,2.94
2023-01-17T22:39:10.007Z,2.56
2023-01-17T22:41:37.838Z,2.51
2023-01-17T22:44:05.519Z,2.51
2023-01-17T22:46:33.953Z,2.63
2023-01-17T22:49:00.542Z,2.70
2023-01-17T22:51:28.373Z,2.61
2023-01-17T22:53:57.054Z,2.75
2023-01-17T22:56:26.846Z,2.82
2023-01-17T22:58:53.737Z,2.95
2023-01-17T23:01:21.623Z,3.07
2023-01-17T23:03:53.890Z,2.98
2023-01-17T23:06:25.882Z,2.91
2023-01-17T23:08:54.528Z,2.87
2023-01-17T23:11:39.697Z,2.86
2023-01-17T23:14:17.625Z,2.94
2023-01-17T23:17:08.231Z,2.82
2023-01-17T23:19:36.660Z,2.79
2023-01-17T23:22:20.720Z,2.79
2023-01-17T23:24:48.999Z,2.68
2023-01-17T23:27:54.285Z,2.71
2023-01-17T23:30:29.399Z,2.65
2023-01-17T23:32:58.316Z,2.58
2023-01-17T23:35:27.670Z,2.56
2023-01-17T23:38:13.169Z,2.49
2023-01-17T23:40:40.375Z,2.39
2023-01-17T23:43:24.721Z,2.41
2023-01-17T23:45:53.335Z,2.53
2023-01-17T23:48:21.090Z,2.56
2023-01-17T23:50:48.225Z,2.59
2023-01-17T23:53:22.192Z,2.63
2023-01-17T23:55:54.127Z,2.66
2023-01-17T23:58:25.583Z,2.56
